createdAt,value
2023-04-06T00:00:10.078Z,101297.44
2023-04-06T00:02:38.462Z,101294.78
2023-04-06T00:05:07.405Z,101279.75
2023-04-06T00:07:36.525Z,101263.72
2023-04-06T00:10:08.957Z,101277.13
2023-04-06T00:12:37.191Z,101286.19
2023-04-06T00:15:06.754Z,101274.28
2023-04-06T00:17:35.081Z,101275.28
2023-04-06T00:20:03.600Z,101285.53
2023-04-06T00:22:32.037Z,101285.88
2023-04-06T00:25:00.352Z,101280.91
2023-04-06T00:27:29.903Z,101285.19
2023-04-06T00:29:58.454Z,101281.72
2023-04-06T00:32:26.825Z,101287.47
2023-04-06T00:34:54.859Z,101269.94
2023-04-06T00:37:23.104Z,101267.16
2023-04-06T00:39:52.636Z,101269.28
2023-04-06T00:42:26.336Z,101267.66
2023-04-06T00:44:58.273Z,101265.00
2023-04-06T00:47:27.421Z,101266.81
2023-04-06T00:49:56.019Z,101273.25
2023-04-06T00:52:24.515Z,101284.75
2023-04-06T00:54:52.998Z,101290.03
2023-04-06T00:57:21.270Z,101289.38
2023-04-06T00:59:49.797Z,101282.44
2023-04-06T01:02:19.611Z,101287.88
2023-04-06T01:04:48.050Z,101281.13
2023-04-06T01:07:16.309Z,101267.44
2023-04-06T01:09:44.647Z,101286.56
2023-04-06T01:12:12.916Z,101287.53
2023-04-06T01:14:41.281Z,101305.03
2023-04-06T01:17:09.479Z,101299.91
2023-04-06T01:19:39.277Z,101295.28
2023-04-06T01:22:07.560Z,101292.81
2023-04-06T01:24:37.211Z,101293.81
2023-04-06T01:27:05.895Z,101301.88
2023-04-06T01:29:34.086Z,101303.03
2023-04-06T01:32:02.295Z,101293.31
2023-04-06T01:34:30.555Z,101290.84
2023-04-06T01:36:58.749Z,101287.84
2023-04-06T01:39:27.419Z,101286.22
2023-04-06T01:41:57.046Z,101288.03
2023-04-06T01:44:25.187Z,101285.06
2023-04-06T01:46:53.457Z,101284.41
2023-04-06T01:49:21.636Z,101288.53
2023-04-06T01:51:49.758Z,101280.75
2023-04-06T01:54:17.911Z,101276.81
2023-04-06T01:56:46.722Z,101282.91
2023-04-06T01:59:16.376Z,101278.44
2023-04-06T02:01:44.699Z,101269.50
2023-04-06T02:04:13.060Z,101267.56
2023-04-06T02:06:41.404Z,101269.03
2023-04-06T02:09:09.643Z,101272.19
2023-04-06T02:11:37.980Z,101272.19
2023-04-06T02:14:06.228Z,101271.38
2023-04-06T02:16:35.982Z,101269.25
2023-04-06T02:19:04.280Z,101268.56
2023-04-06T02:21:32.514Z,101273.66
2023-04-06T02:24:00.760Z,101260.47
2023-04-06T02:26:28.947Z,101265.56
2023-04-06T02:28:57.241Z,101260.31
2023-04-06T02:31:25.632Z,101260.16
2023-04-06T02:33:55.555Z,101260.00
2023-04-06T02:36:23.837Z,101260.00
2023-04-06T02:38:52.864Z,101260.81
2023-04-06T02:41:21.213Z,101265.44
2023-04-06T02:43:49.392Z,101268.56
2023-04-06T02:46:17.608Z,101273.50
2023-04-06T02:48:45.761Z,101259.47
2023-04-06T02:51:15.808Z,101267.22
2023-04-06T02:53:43.979Z,101269.69
2023-04-06T02:56:12.406Z,101263.75
2023-04-06T02:58:40.581Z,101270.81
2023-04-06T03:01:08.871Z,101272.50
2023-04-06T03:03:37.183Z,101264.72
2023-04-06T03:06:05.850Z,101268.53
2023-04-06T03:08:35.466Z,101259.91
2023-04-06T03:11:03.696Z,101255.63
2023-04-06T03:13:31.866Z,101253.00
2023-04-06T03:16:00.004Z,101254.97
2023-04-06T03:18:28.206Z,101260.88
2023-04-06T03:20:56.507Z,101265.16
2023-04-06T03:23:24.669Z,101268.78
2023-04-06T03:25:54.203Z,101268.09
2023-04-06T03:28:22.283Z,101263.63
2023-04-06T03:30:51.766Z,101270.84
2023-04-06T03:33:20.108Z,101264.75
2023-04-06T03:35:48.363Z,101256.50
2023-04-06T03:38:16.902Z,101258.97
2023-04-06T03:40:45.062Z,101262.53
2023-04-06T03:43:14.596Z,101255.78
2023-04-06T03:45:42.839Z,101255.78
2023-04-06T03:48:11.131Z,101257.59
2023-04-06T03:50:39.372Z,101253.78
2023-04-06T03:53:07.557Z,101268.75
2023-04-06T03:55:35.795Z,101264.34
2023-04-06T03:58:03.981Z,101263.00
2023-04-06T04:00:34.077Z,101272.59
2023-04-06T04:03:03.322Z,101274.53
2023-04-06T04:05:31.989Z,101263.66
2023-04-06T04:08:00.269Z,101268.28
2023-04-06T04:10:28.585Z,101264.16
2023-04-06T04:12:56.773Z,101263.13
2023-04-06T04:15:25.016Z,101262.47
2023-04-06T04:17:54.610Z,101270.53
2023-04-06T04:20:22.998Z,101268.38
2023-04-06T04:22:51.135Z,101270.16
2023-04-06T04:25:19.334Z,101269.19
2023-04-06T04:27:47.782Z,101262.94
2023-04-06T04:30:16.454Z,101262.94
2023-04-06T04:32:44.675Z,101263.22
2023-04-06T04:35:14.608Z,101265.56
2023-04-06T04:37:43.664Z,101272.66
2023-04-06T04:40:12.894Z,101265.56
2023-04-06T04:42:41.071Z,101268.66
2023-04-06T04:45:09.842Z,101272.28
2023-04-06T04:47:37.967Z,101273.13
2023-04-06T04:50:07.010Z,101275.75
2023-04-06T04:52:36.654Z,101278.84
2023-04-06T04:55:05.249Z,101281.66
2023-04-06T04:57:33.313Z,101282.16
2023-04-06T05:00:02.696Z,101283.81
2023-04-06T05:02:31.123Z,101287.28
2023-04-06T05:04:59.434Z,101291.88
2023-04-06T05:07:27.601Z,101288.56
2023-04-06T05:09:57.360Z,101293.31
2023-04-06T05:12:26.076Z,101295.78
2023-04-06T05:14:54.402Z,101301.75
2023-04-06T05:17:22.868Z,101299.25
2023-04-06T05:19:51.338Z,101304.69
2023-04-06T05:22:19.496Z,101303.69
2023-04-06T05:24:47.641Z,101308.28
2023-04-06T05:27:17.142Z,101311.09
2023-04-06T05:29:45.271Z,101308.59
2023-04-06T05:32:13.404Z,101303.66
2023-04-06T05:34:41.824Z,101321.41
2023-04-06T05:37:10.524Z,101309.50
2023-04-06T05:39:38.675Z,101321.19
2023-04-06T05:42:07.981Z,101317.03
2023-04-06T05:44:39.562Z,101324.28
2023-04-06T05:47:07.502Z,101316.97
2023-04-06T05:49:35.853Z,101321.78
2023-04-06T05:52:05.287Z,101324.03
2023-04-06T05:54:33.514Z,101325.94
2023-04-06T05:57:01.672Z,101323.97
2023-04-06T05:59:29.927Z,101327.81
2023-04-06T06:01:59.489Z,101337.66
2023-04-06T06:04:27.662Z,101329.47
2023-04-06T06:06:56.177Z,101344.13
2023-04-06T06:09:24.218Z,101343.63
2023-04-06T06:11:52.609Z,101347.38
2023-04-06T06:14:21.121Z,101344.75
2023-04-06T06:16:49.189Z,101342.94
2023-04-06T06:19:18.682Z,101343.25
2023-04-06T06:21:46.832Z,101346.34
2023-04-06T06:24:15.009Z,101348.38
2023-04-06T06:26:44.204Z,101354.28
2023-04-06T06:29:12.415Z,101366.13
2023-04-06T06:31:40.596Z,101362.81
2023-04-06T06:34:08.791Z,101366.13
2023-04-06T06:36:38.412Z,101357.84
2023-04-06T06:39:06.732Z,101362.59
2023-04-06T06:41:35.074Z,101370.34
2023-04-06T06:44:03.409Z,101366.56
2023-04-06T06:46:31.694Z,101367.56
2023-04-06T06:49:01.181Z,101367.00
2023-04-06T06:51:29.289Z,101370.63
2023-04-06T06:53:58.854Z,101369.41
2023-04-06T06:56:27.799Z,101368.75
2023-04-06T06:58:56.027Z,101373.03
2023-04-06T07:01:24.303Z,101373.59
2023-04-06T07:03:52.623Z,101376.22
2023-04-06T07:06:20.744Z,101377.03
2023-04-06T07:08:49.083Z,101376.16
2023-04-06T07:11:18.859Z,101385.63
2023-04-06T07:13:47.036Z,101370.19
2023-04-06T07:16:15.200Z,101377.34
2023-04-06T07:18:43.359Z,101377.38
2023-04-06T07:21:11.564Z,101377.97
2023-04-06T07:23:39.754Z,101377.38
2023-04-06T07:26:08.003Z,101380.38
2023-04-06T07:28:37.748Z,101379.69
2023-04-06T07:31:05.894Z,101384.97
2023-04-06T07:33:34.047Z,101386.91
2023-04-06T07:36:02.330Z,101387.00
2023-04-06T07:38:30.518Z,101388.13
2023-04-06T07:40:58.747Z,101388.28
2023-04-06T07:43:26.858Z,101389.25
2023-04-06T07:45:58.318Z,101391.81
2023-04-06T07:48:26.546Z,101399.72
2023-04-06T07:50:54.722Z,101399.06
2023-04-06T07:53:22.887Z,101401.09
2023-04-06T07:55:51.156Z,101392.06
2023-04-06T07:58:19.394Z,101404.78
2023-04-06T08:00:47.463Z,101400.25
2023-04-06T08:03:17.693Z,101392.63
2023-04-06T08:05:46.376Z,101394.59
2023-04-06T08:08:14.510Z,101401.00
2023-04-06T08:10:42.752Z,101397.75
2023-04-06T08:13:11.001Z,101406.59
2023-04-06T08:15:39.531Z,101403.97
2023-04-06T08:18:07.684Z,101403.31
2023-04-06T08:20:37.859Z,101417.72
2023-04-06T08:23:06.135Z,101414.63
2023-04-06T08:25:34.450Z,101413.78
2023-04-06T08:28:02.765Z,101416.78
2023-04-06T08:30:32.000Z,101417.16
2023-04-06T08:33:00.279Z,101419.47
2023-04-06T08:35:29.067Z,101421.84
2023-04-06T08:37:59.187Z,101426.19
2023-04-06T08:40:27.326Z,101422.72
2023-04-06T08:42:58.189Z,101421.91
2023-04-06T08:45:26.552Z,101428.00
2023-04-06T08:47:54.987Z,101424.06
2023-04-06T08:50:23.761Z,101430.72
2023-04-06T08:52:52.037Z,101430.06
2023-04-06T08:55:21.621Z,101434.88
2023-04-06T08:57:49.962Z,101425.19
2023-04-06T09:00:20.629Z,101441.41
2023-04-06T09:02:50.960Z,101445.91
2023-04-06T09:05:19.844Z,101435.47
2023-04-06T09:07:48.174Z,101445.25
2023-04-06T09:10:18.215Z,101446.56
2023-04-06T09:12:47.937Z,101452.34
2023-04-06T09:15:24.921Z,101453.34
2023-04-06T09:17:55.666Z,101461.09
2023-04-06T09:20:27.015Z,101468.38
2023-04-06T09:22:55.491Z,101471.84
2023-04-06T09:25:25.643Z,101476.47
2023-04-06T09:28:03.410Z,101493.16
2023-04-06T09:30:31.873Z,101495.63
2023-04-06T09:33:01.008Z,101505.09
2023-04-06T09:35:31.419Z,101511.53
2023-04-06T09:37:59.623Z,101505.63
2023-04-06T09:40:30.158Z,101517.69
2023-04-06T09:43:00.491Z,101517.03
2023-04-06T09:45:32.459Z,101527.78
2023-04-06T09:48:02.150Z,101549.25
2023-04-06T09:50:31.152Z,101543.97
2023-04-06T09:53:01.121Z,101540.69
2023-04-06T09:55:36.725Z,101548.28
2023-04-06T09:58:08.217Z,101551.88
2023-04-06T10:00:46.764Z,101556.56
2023-04-06T10:03:23.583Z,101566.59
2023-04-06T10:05:56.183Z,101560.94
2023-04-06T10:08:31.775Z,101564.31
2023-04-06T10:11:02.172Z,101563.09
2023-04-06T10:13:30.495Z,101563.84
2023-04-06T10:16:03.063Z,101578.22
2023-04-06T10:18:31.623Z,101582.19
2023-04-06T10:21:06.613Z,101578.91
2023-04-06T10:23:38.029Z,101592.00
2023-04-06T10:26:06.340Z,101591.13
2023-04-06T10:28:37.002Z,101600.19
2023-04-06T10:31:08.787Z,101595.59
2023-04-06T10:33:36.933Z,101602.63
2023-04-06T10:36:15.668Z,101594.50
2023-04-06T10:38:44.756Z,101595.19
2023-04-06T10:41:14.871Z,101613.38
2023-04-06T10:43:44.554Z,101619.16
2023-04-06T10:46:15.008Z,101620.59
2023-04-06T10:48:44.663Z,101627.84
2023-04-06T10:51:14.619Z,101631.34
2023-04-06T10:53:44.106Z,101625.53
2023-04-06T10:56:13.815Z,101632.03
2023-04-06T10:58:47.721Z,101623.47
2023-04-06T11:01:18.976Z,101622.00
2023-04-06T11:03:47.966Z,101628.91
2023-04-06T11:06:23.447Z,101642.47
2023-04-06T11:08:52.269Z,101637.53
2023-04-06T11:11:22.109Z,101642.69
2023-04-06T11:13:52.660Z,101642.97
2023-04-06T11:16:23.253Z,101650.94
2023-04-06T11:18:53.403Z,101654.59
2023-04-06T11:21:22.795Z,101657.53
2023-04-06T11:23:50.961Z,101658.56
2023-04-06T11:26:19.270Z,101666.50
2023-04-06T11:28:47.952Z,101660.56
2023-04-06T11:31:16.296Z,101665.03
2023-04-06T11:33:45.847Z,101663.16
2023-04-06T11:36:16.695Z,101660.44
2023-04-06T11:38:45.443Z,101660.63
2023-04-06T11:41:13.680Z,101659.91
2023-04-06T11:43:49.554Z,101658.63
2023-04-06T11:46:21.429Z,101663.84
2023-04-06T11:48:51.466Z,101669.94
2023-04-06T11:51:25.303Z,101675.53
2023-04-06T11:53:53.738Z,101677.66
2023-04-06T11:56:29.459Z,101679.66
2023-04-06T11:58:59.185Z,101671.59
2023-04-06T12:01:27.834Z,101678.06
2023-04-06T12:03:57.539Z,101676.28
2023-04-06T12:06:26.617Z,101686.41
2023-04-06T12:08:54.787Z,101674.81
2023-04-06T12:11:22.979Z,101679.16
2023-04-06T12:13:51.376Z,101678.19
2023-04-06T12:16:20.353Z,101677.56
2023-04-06T12:18:48.565Z,101680.09
2023-04-06T12:21:18.091Z,101682.25
2023-04-06T12:23:46.487Z,101695.88
2023-04-06T12:26:14.685Z,101684.19
2023-04-06T12:28:42.879Z,101683.59
2023-04-06T12:31:17.578Z,101687.84
2023-04-06T12:33:46.412Z,101687.94
2023-04-06T12:36:15.218Z,101683.13
2023-04-06T12:38:46.829Z,101696.94
2023-04-06T12:41:15.295Z,101683.22
2023-04-06T12:43:44.149Z,101696.69
2023-04-06T12:46:12.969Z,101692.06
2023-04-06T12:48:41.547Z,101691.47
2023-04-06T12:51:09.893Z,101696.94
2023-04-06T12:53:38.134Z,101702.47
2023-04-06T12:56:14.444Z,101702.88
2023-04-06T12:58:43.288Z,101694.38
2023-04-06T13:01:14.042Z,101695.09
2023-04-06T13:03:43.052Z,101695.16
2023-04-06T13:06:12.486Z,101694.22
2023-04-06T13:08:42.017Z,101702.94
2023-04-06T13:11:11.885Z,101699.81
2023-04-06T13:13:40.168Z,101709.19
2023-04-06T13:16:10.037Z,101717.78
2023-04-06T13:18:39.969Z,101718.25
2023-04-06T13:21:08.890Z,101718.44
2023-04-06T13:23:37.283Z,101720.75
2023-04-06T13:26:07.779Z,101722.63
2023-04-06T13:28:40.154Z,101718.66
2023-04-06T13:31:09.284Z,101717.63
2023-04-06T13:33:37.871Z,101722.72
2023-04-06T13:36:08.565Z,101705.75
2023-04-06T13:38:36.785Z,101720.47
2023-04-06T13:41:04.806Z,101722.25
2023-04-06T13:43:33.321Z,101723.38
2023-04-06T13:46:02.903Z,101722.53
2023-04-06T13:48:31.721Z,101730.44
2023-04-06T13:51:00.195Z,101729.41
2023-04-06T13:53:28.482Z,101726.69
2023-04-06T13:55:57.125Z,101723.38
2023-04-06T13:58:25.410Z,101716.34
2023-04-06T14:00:53.872Z,101726.19
2023-04-06T14:03:25.036Z,101731.66
2023-04-06T14:05:53.645Z,101731.22
2023-04-06T14:08:22.109Z,101721.66
2023-04-06T14:10:50.473Z,101732.09
2023-04-06T14:13:20.436Z,101732.44
2023-04-06T14:15:48.740Z,101731.50
2023-04-06T14:18:17.039Z,101727.28
2023-04-06T14:20:46.674Z,101716.78
2023-04-06T14:23:14.895Z,101719.81
2023-04-06T14:25:43.207Z,101728.06
2023-04-06T14:28:11.388Z,101733.59
2023-04-06T14:30:39.473Z,101729.41
2023-04-06T14:33:08.290Z,101727.19
2023-04-06T14:35:39.863Z,101727.47
2023-04-06T14:38:09.549Z,101727.25
2023-04-06T14:40:38.619Z,101722.91
2023-04-06T14:43:07.260Z,101727.63
2023-04-06T14:45:35.894Z,101732.22
2023-04-06T14:48:04.204Z,101720.50
2023-04-06T14:50:32.467Z,101711.63
2023-04-06T14:53:00.921Z,101730.66
2023-04-06T14:55:30.545Z,101731.03
2023-04-06T14:57:58.890Z,101724.81
2023-04-06T15:00:27.134Z,101726.41
2023-04-06T15:02:55.468Z,101725.84
2023-04-06T15:05:23.628Z,101719.84
2023-04-06T15:07:51.969Z,101723.59
2023-04-06T15:10:20.320Z,101720.63
2023-04-06T15:12:49.863Z,101711.00
2023-04-06T15:15:18.209Z,101724.44
2023-04-06T15:17:46.746Z,101726.44
2023-04-06T15:20:15.258Z,101726.94
2023-04-06T15:22:43.930Z,101730.59
2023-04-06T15:25:12.230Z,101731.25
2023-04-06T15:27:40.335Z,101747.50
2023-04-06T15:30:10.948Z,101738.09
2023-04-06T15:32:39.172Z,101742.63
2023-04-06T15:35:14.109Z,101743.84
2023-04-06T15:37:42.344Z,101745.41
2023-04-06T15:40:14.398Z,101746.78
2023-04-06T15:42:44.005Z,101756.09
2023-04-06T15:45:14.275Z,101759.25
2023-04-06T15:47:43.605Z,101752.84
2023-04-06T15:50:12.687Z,101754.53
2023-04-06T15:52:41.633Z,101767.16
2023-04-06T15:55:10.636Z,101759.88
2023-04-06T15:57:39.000Z,101762.56
2023-04-06T16:00:09.021Z,101755.94
2023-04-06T16:02:38.777Z,101758.06
2023-04-06T16:05:07.394Z,101764.84
2023-04-06T16:07:35.670Z,101763.34
2023-04-06T16:10:05.081Z,101766.38
2023-04-06T16:12:34.133Z,101769.97
2023-04-06T16:15:02.297Z,101767.19
2023-04-06T16:17:30.531Z,101775.13
2023-04-06T16:20:00.369Z,101773.81
2023-04-06T16:22:29.888Z,101774.31
2023-04-06T16:24:58.112Z,101780.94
2023-04-06T16:27:26.599Z,101780.94
2023-04-06T16:29:54.795Z,101785.41
2023-04-06T16:32:23.198Z,101778.78
2023-04-06T16:34:52.404Z,101786.91
2023-04-06T16:37:22.070Z,101800.47
2023-04-06T16:39:50.174Z,101795.19
2023-04-06T16:42:20.511Z,101793.34
2023-04-06T16:44:49.977Z,101796.66
2023-04-06T16:47:18.662Z,101795.50
2023-04-06T16:49:46.859Z,101797.78
2023-04-06T16:52:14.968Z,101805.72
2023-04-06T16:54:44.589Z,101802.94
2023-04-06T16:57:14.189Z,101809.53
2023-04-06T16:59:42.494Z,101805.88
2023-04-06T17:02:10.761Z,101815.31
2023-04-06T17:04:39.125Z,101820.09
2023-04-06T17:07:07.557Z,101818.75
2023-04-06T17:09:35.784Z,101814.28
2023-04-06T17:12:05.889Z,101812.81
2023-04-06T17:14:34.054Z,101814.78
2023-04-06T17:17:03.656Z,101820.25
2023-04-06T17:19:31.832Z,101819.59
2023-04-06T17:22:00.010Z,101816.13
2023-04-06T17:24:28.423Z,101814.44
2023-04-06T17:26:56.642Z,101825.03
2023-04-06T17:29:26.265Z,101828.84
2023-04-06T17:31:54.316Z,101824.38
2023-04-06T17:34:22.672Z,101830.31
2023-04-06T17:36:50.853Z,101830.63
2023-04-06T17:39:19.058Z,101829.97
2023-04-06T17:41:47.782Z,101833.22
2023-04-06T17:44:15.971Z,101839.81
2023-04-06T17:46:45.517Z,101835.50
2023-04-06T17:49:13.716Z,101840.16
2023-04-06T17:51:41.986Z,101848.91
2023-04-06T17:54:10.149Z,101843.91
2023-04-06T17:56:38.672Z,101839.44
2023-04-06T17:59:09.261Z,101860.25
2023-04-06T18:01:37.723Z,101857.06
2023-04-06T18:04:07.404Z,101862.53
2023-04-06T18:06:35.862Z,101867.00
2023-04-06T18:09:05.061Z,101870.78
2023-04-06T18:11:34.303Z,101872.75
2023-04-06T18:14:03.065Z,101880.03
2023-04-06T18:16:31.290Z,101877.00
2023-04-06T18:18:59.571Z,101880.63
2023-04-06T18:21:29.305Z,101879.44
2023-04-06T18:23:58.100Z,101889.66
2023-04-06T18:26:28.185Z,101886.50
2023-04-06T18:28:56.294Z,101886.81
2023-04-06T18:31:24.635Z,101893.41
2023-04-06T18:33:53.910Z,101894.69
2023-04-06T18:36:22.830Z,101896.81
2023-04-06T18:38:52.347Z,101900.59
2023-04-06T18:41:21.035Z,101903.69
2023-04-06T18:43:49.344Z,101913.03
2023-04-06T18:46:20.543Z,101910.03
2023-04-06T18:48:48.725Z,101918.94
2023-04-06T18:51:16.903Z,101921.75
2023-04-06T18:53:45.068Z,101922.22
2023-04-06T18:56:19.068Z,101931.13
2023-04-06T18:58:48.520Z,101934.34
2023-04-06T19:01:23.808Z,101934.66
2023-04-06T19:03:53.197Z,101941.91
2023-04-06T19:06:22.024Z,101938.72
2023-04-06T19:08:50.720Z,101935.56
2023-04-06T19:11:23.083Z,101944.44
2023-04-06T19:13:51.342Z,101945.06
2023-04-06T19:16:19.702Z,101938.41
2023-04-06T19:18:48.006Z,101940.38
2023-04-06T19:21:17.700Z,101938.41
2023-04-06T19:23:45.933Z,101943.00
2023-04-06T19:26:15.008Z,101950.09
2023-04-06T19:28:45.281Z,101945.09
2023-04-06T19:31:15.821Z,101941.09
2023-04-06T19:33:45.425Z,101933.50
2023-04-06T19:36:14.031Z,101944.50
2023-04-06T19:38:42.964Z,101947.13
2023-04-06T19:41:11.233Z,101943.13
2023-04-06T19:43:39.502Z,101947.19
2023-04-06T19:46:09.346Z,101953.41
2023-04-06T19:48:37.734Z,101950.22
2023-04-06T19:51:07.080Z,101962.72
2023-04-06T19:53:35.161Z,101958.59
2023-04-06T19:56:03.389Z,101961.66
2023-04-06T19:58:31.967Z,101968.72
2023-04-06T20:01:00.265Z,101966.41
2023-04-06T20:03:30.039Z,101966.69
2023-04-06T20:05:58.157Z,101974.03
2023-04-06T20:08:26.796Z,101975.34
2023-04-06T20:11:01.767Z,101977.97
2023-04-06T20:13:30.376Z,101974.47
2023-04-06T20:15:59.066Z,101982.56
2023-04-06T20:18:27.378Z,101977.44
2023-04-06T20:20:57.041Z,101982.81
2023-04-06T20:23:25.836Z,101985.94
2023-04-06T20:25:54.128Z,101986.75
2023-04-06T20:28:23.238Z,101983.41
2023-04-06T20:30:53.338Z,101981.91
2023-04-06T20:33:22.227Z,101984.81
2023-04-06T20:35:58.865Z,101978.00
2023-04-06T20:38:33.260Z,101985.25
2023-04-06T20:41:02.099Z,101997.59
2023-04-06T20:43:31.835Z,101982.88
2023-04-06T20:46:02.716Z,101989.28
2023-04-06T20:48:33.484Z,101993.75
2023-04-06T20:51:04.200Z,101992.19
2023-04-06T20:53:32.631Z,101998.47
2023-04-06T20:56:02.649Z,102005.41
2023-04-06T20:58:30.826Z,102003.06
2023-04-06T21:00:59.010Z,102012.06
2023-04-06T21:03:27.399Z,102014.84
2023-04-06T21:05:57.472Z,102019.44
2023-04-06T21:08:27.068Z,102018.59
2023-04-06T21:10:55.679Z,102021.50
2023-04-06T21:13:23.894Z,102021.50
2023-04-06T21:15:52.047Z,102016.53
2023-04-06T21:18:20.235Z,102029.00
2023-04-06T21:20:48.739Z,102017.22
2023-04-06T21:23:16.860Z,102029.72
2023-04-06T21:25:50.263Z,102030.97
2023-04-06T21:28:18.437Z,102019.44
2023-04-06T21:30:46.627Z,102010.84
2023-04-06T21:33:14.892Z,102011.81
2023-04-06T21:35:43.592Z,102006.97
2023-04-06T21:38:11.826Z,102005.16
2023-04-06T21:40:40.073Z,102010.44
2023-04-06T21:43:09.751Z,102008.88
2023-04-06T21:45:37.901Z,102006.53
2023-04-06T21:48:07.101Z,102001.53
2023-04-06T21:50:35.328Z,102002.63
2023-04-06T21:53:03.468Z,101996.69
2023-04-06T21:55:31.557Z,102002.94
2023-04-06T21:57:59.706Z,102005.84
2023-04-06T22:00:29.307Z,102003.63
2023-04-06T22:02:57.646Z,102002.94
2023-04-06T22:05:25.878Z,102007.50
2023-04-06T22:07:54.053Z,102007.91
2023-04-06T22:10:22.184Z,102004.59
2023-04-06T22:12:50.877Z,102003.88
2023-04-06T22:15:19.061Z,102005.84
2023-04-06T22:17:48.686Z,102008.72
2023-04-06T22:20:16.905Z,102003.75
2023-04-06T22:22:45.123Z,102005.69
2023-04-06T22:25:13.365Z,102011.22
2023-04-06T22:27:42.000Z,102007.88
2023-04-06T22:30:11.097Z,102005.41
2023-04-06T22:32:39.202Z,102004.84
2023-04-06T22:35:10.144Z,102011.75
2023-04-06T22:37:38.482Z,102016.19
2023-04-06T22:40:07.975Z,102020.91
2023-04-06T22:42:36.036Z,102031.72
2023-04-06T22:45:04.558Z,102032.81
2023-04-06T22:47:33.652Z,102033.66
2023-04-06T22:50:01.831Z,102035.16
2023-04-06T22:52:31.490Z,102039.47
2023-04-06T22:54:59.596Z,102044.00
2023-04-06T22:57:27.687Z,102047.63
2023-04-06T22:59:55.817Z,102046.78
2023-04-06T23:02:24.186Z,102053.28
2023-04-06T23:04:52.379Z,102056.88
2023-04-06T23:07:20.876Z,102058.00
2023-04-06T23:09:50.619Z,102060.88
2023-04-06T23:12:18.737Z,102057.53
2023-04-06T23:14:46.829Z,102055.75
2023-04-06T23:17:15.617Z,102056.84
2023-04-06T23:19:43.740Z,102063.91
2023-04-06T23:22:12.451Z,102064.06
2023-04-06T23:24:40.589Z,102062.34
2023-04-06T23:27:10.117Z,102064.31
2023-04-06T23:29:38.154Z,102069.56
2023-04-06T23:32:06.685Z,102074.97
2023-04-06T23:34:34.859Z,102079.28
2023-04-06T23:37:03.258Z,102076.06
2023-04-06T23:39:31.838Z,102074.53
2023-04-06T23:42:00.054Z,102072.16
2023-04-06T23:44:31.986Z,102071.03
2023-04-06T23:47:00.101Z,102070.22
2023-04-06T23:49:28.156Z,102068.69
2023-04-06T23:51:56.271Z,102068.94
2023-04-06T23:54:24.489Z,102068.25
2023-04-06T23:56:52.673Z,102066.47
2023-04-06T23:59:20.787Z,102064.78
